Bluebell, South Dakota
Current Conditions -  °F | °C
As of 8:53 AM on Saturday 20 Dec 2014 (Local Time) from KCUT Reporting Station
Overcast Overcast  
Wind Chill: 34°   Ceiling: 7000
Heat Index: 34°   Visibility: 10mi
Dew Point: 21°   Wind: 0mph
Humidity: 59%   Direction: NA
Pressure: 29.91"   Gusts: NA
Location:  43.6653°N, 103.766°W
Report Text: KCUT 201553Z AUTO 00000KT 10SM OVC070 01/M06 A2991 RMK AO2 SLP157 T00111061
Loading
Personal Weather Stations






























Interactive Weather Map New forecast layout! Learn more

10-Day Weather Forecast

Advertisements
Track Severe Weather on mobile